Time;durP1;ratioP1;P1;durP2;ratioP2;P2;SDS_P1;SDS_P2;PMS_P1;PMS_P2;Temp;Humidity;BMP_temperature;BMP_pressure;BME280_temperature;BME280_humidity;BME280_pressure;Samples;Min_cycle;Max_cycle;Signal;HPM_P1;HPM_P2
2021/09/29 00:01:50;;;;;;;7.80;7.20;;;13.50;99.90;;;;;;4909261;29;20648;-96
2021/09/29 00:04:22;;;;;;;7.37;6.77;;;13.50;99.90;;;;;;4903014;29;20703;-96
2021/09/29 00:06:50;;;;;;;7.67;7.00;;;13.50;99.90;;;;;;4919841;29;20667;-95
2021/09/29 00:09:17;;;;;;;6.77;6.27;;;13.60;99.90;;;;;;4915719;29;20667;-95
2021/09/29 00:11:45;;;;;;;7.97;7.40;;;13.50;99.90;;;;;;4916980;29;20663;-95
2021/09/29 00:14:14;;;;;;;7.90;7.27;;;13.40;99.90;;;;;;4916234;29;20672;-96
2021/09/29 00:16:48;;;;;;;7.87;7.30;;;13.40;99.90;;;;;;4906479;29;20675;-96
2021/09/29 00:19:15;;;;;;;7.17;6.73;;;13.40;99.90;;;;;;4903408;29;20649;-96
2021/09/29 00:21:43;;;;;;;9.40;6.80;;;13.40;99.90;;;;;;4908776;29;20674;-96
2021/09/29 00:24:11;;;;;;;7.70;7.10;;;13.40;99.90;;;;;;4902725;29;20785;-96
2021/09/29 00:26:38;;;;;;;8.37;7.57;;;13.40;99.90;;;;;;4899948;29;20724;-96
2021/09/29 00:29:08;;;;;;;7.33;6.80;;;13.40;99.90;;;;;;4909355;29;20638;-96
2021/09/29 00:31:39;;;;;;;8.50;7.80;;;13.50;99.90;;;;;;4892068;29;21184;-96
2021/09/29 00:34:09;;;;;;;8.03;7.43;;;13.40;99.90;;;;;;4901587;29;20676;-96
2021/09/29 00:36:36;;;;;;;8.77;7.97;;;13.40;99.90;;;;;;4906890;29;20676;-96
2021/09/29 00:39:05;;;;;;;8.00;7.30;;;13.40;99.90;;;;;;4918407;29;20672;-96
2021/09/29 00:41:37;;;;;;;9.70;8.80;;;13.30;99.90;;;;;;4913049;29;20641;-96
2021/09/29 00:44:06;;;;;;;8.97;8.20;;;13.30;99.90;;;;;;4908409;29;20689;-96
2021/09/29 00:46:44;;;;;;;9.80;9.00;;;13.30;99.90;;;;;;4915635;29;20668;-96
2021/09/29 01:42:46;;;;;;;9.80;9.00;;;12.90;99.90;;;;;;4943625;28;20615;-95
2021/09/29 01:45:46;;;;;;;10.57;9.70;;;12.90;99.90;;;;;;4946011;29;20626;-95
2021/09/29 01:51:00;;;;;;;10.73;9.70;;;12.70;99.90;;;;;;4962045;29;20658;-96
2021/09/29 01:53:34;;;;;;;11.03;10.13;;;12.70;99.90;;;;;;4947405;28;20703;-96
2021/09/29 01:56:17;;;;;;;9.53;8.73;;;12.70;99.90;;;;;;4951363;29;20625;-95
2021/09/29 04:08:13;;;;;;;9.60;8.80;;;13.10;99.90;;;;;;4930797;29;20761;-96
2021/09/29 04:10:40;;;;;;;9.00;8.40;;;13.10;99.90;;;;;;4924748;29;20676;-93
2021/09/29 04:13:10;;;;;;;9.90;9.00;;;13.20;99.90;;;;;;4923929;29;20647;-95
2021/09/29 04:15:37;;;;;;;10.73;9.83;;;13.20;99.90;;;;;;4926142;29;20655;-95
2021/09/29 04:18:05;;;;;;;11.53;8.50;;;13.10;99.90;;;;;;4925988;29;20940;-94
2021/09/29 04:20:38;;;;;;;8.50;7.90;;;13.10;99.90;;;;;;4919367;29;20640;-94
2021/09/29 04:23:05;;;;;;;9.83;8.77;;;13.10;99.90;;;;;;4922300;29;20640;-95
2021/09/29 04:25:34;;;;;;;9.50;8.60;;;13.20;99.90;;;;;;4926431;29;20644;-95
2021/09/29 04:28:02;;;;;;;10.20;7.80;;;13.20;99.90;;;;;;4939271;29;20667;-96
2021/09/29 04:30:29;;;;;;;9.33;8.67;;;13.10;99.90;;;;;;4926336;29;20747;-96
2021/09/29 04:33:00;;;;;;;10.13;9.27;;;13.10;99.90;;;;;;4927312;29;20743;-96
2021/09/29 04:35:27;;;;;;;9.57;8.67;;;13.10;99.90;;;;;;4925387;29;20632;-96
2021/09/29 04:37:55;;;;;;;9.50;8.73;;;13.20;99.90;;;;;;4931713;29;20691;-96
2021/09/29 04:40:30;;;;;;;9.20;8.50;;;13.20;99.90;;;;;;4928624;29;20752;-96
2021/09/29 04:46:32;;;;;;;10.50;9.53;;;13.20;99.90;;;;;;4936948;29;20652;-96
2021/09/29 04:49:08;;;;;;;10.50;9.50;;;13.10;99.90;;;;;;4933948;29;20754;-96
2021/09/29 04:51:48;;;;;;;9.87;9.00;;;13.10;99.90;;;;;;4924388;29;20674;-95
2021/09/29 04:54:18;;;;;;;9.43;8.70;;;13.00;99.90;;;;;;4924655;29;20631;-95
2021/09/29 04:56:45;;;;;;;10.20;8.70;;;13.00;99.90;;;;;;4926758;29;20616;-94
2021/09/29 04:59:12;;;;;;;10.00;9.03;;;12.90;99.90;;;;;;4932250;29;20690;-96
2021/09/29 05:01:42;;;;;;;10.70;9.80;;;13.00;99.90;;;;;;4924882;29;20639;-95
2021/09/29 05:04:10;;;;;;;12.40;9.97;;;12.90;99.90;;;;;;4919597;29;20644;-95
2021/09/29 05:06:37;;;;;;;10.83;9.93;;;12.80;99.90;;;;;;4934391;29;20672;-96
2021/09/29 05:09:05;;;;;;;9.50;8.80;;;12.70;99.90;;;;;;4933712;29;20722;-96
2021/09/29 05:11:47;;;;;;;10.50;9.77;;;12.70;99.90;;;;;;4932261;29;20650;-96
2021/09/29 05:14:14;;;;;;;11.20;10.23;;;12.60;99.90;;;;;;4925608;29;20664;-96
2021/09/29 05:16:43;;;;;;;10.67;9.73;;;12.50;99.90;;;;;;4926686;29;20691;-96
2021/09/29 05:19:12;;;;;;;9.90;9.07;;;12.50;99.90;;;;;;4937010;29;20671;-96
2021/09/29 05:21:40;;;;;;;10.27;9.33;;;12.40;99.90;;;;;;4937676;29;20644;-96
2021/09/29 05:24:07;;;;;;;10.50;9.60;;;12.40;99.90;;;;;;4926354;29;20741;-96
2021/09/29 05:26:43;;;;;;;11.80;9.27;;;12.30;99.90;;;;;;4929713;29;20658;-96
2021/09/29 05:29:12;;;;;;;11.33;8.47;;;12.20;99.90;;;;;;4943724;29;20734;-96
2021/09/29 05:31:43;;;;;;;9.07;8.37;;;12.10;99.90;;;;;;4932185;29;20640;-96
2021/09/29 05:34:18;;;;;;;11.70;9.00;;;12.00;99.90;;;;;;4918744;29;20643;-96
2021/09/29 05:37:07;;;;;;;10.13;9.23;;;11.90;99.90;;;;;;4927138;29;21162;-96
2021/09/29 05:39:34;;;;;;;8.83;8.07;;;11.90;99.90;;;;;;4922225;29;20632;-95
2021/09/29 05:42:06;;;;;;;9.03;8.27;;;11.90;99.90;;;;;;4929266;29;20645;-96
2021/09/29 05:44:34;;;;;;;11.00;8.77;;;11.70;99.90;;;;;;4930431;29;20632;-96
2021/09/29 05:47:03;;;;;;;11.33;10.37;;;11.60;99.90;;;;;;4926609;29;21116;-96
2021/09/29 05:49:30;;;;;;;10.43;9.43;;;11.70;99.90;;;;;;4927229;29;20641;-95
2021/09/29 05:51:57;;;;;;;11.20;8.93;;;11.80;99.90;;;;;;4916162;29;20734;-95
2021/09/29 05:54:24;;;;;;;10.20;9.20;;;11.60;99.90;;;;;;4920686;29;20723;-95
2021/09/29 05:56:51;;;;;;;10.43;9.50;;;11.60;99.90;;;;;;4927474;29;20632;-96
2021/09/29 05:59:18;;;;;;;10.40;9.50;;;11.50;99.90;;;;;;4918496;29;20759;-96
2021/09/29 06:01:45;;;;;;;10.47;9.10;;;11.50;99.90;;;;;;4929530;29;20631;-95
2021/09/29 06:04:18;;;;;;;11.63;9.07;;;11.50;99.90;;;;;;4929229;29;20631;-95
2021/09/29 06:06:46;;;;;;;10.87;9.90;;;11.50;99.90;;;;;;4924656;29;20683;-95
2021/09/29 06:09:22;;;;;;;13.30;10.53;;;11.60;99.90;;;;;;4931011;29;22453;-94
2021/09/29 06:11:55;;;;;;;10.53;9.73;;;11.70;99.90;;;;;;4931541;29;20653;-96
2021/09/29 06:14:26;;;;;;;11.63;10.10;;;11.70;99.90;;;;;;4923196;29;20635;-93
2021/09/29 06:16:59;;;;;;;11.30;10.40;;;11.70;99.90;;;;;;4924767;29;21083;-94
2021/09/29 06:19:28;;;;;;;10.80;9.87;;;11.80;99.90;;;;;;4927465;29;20652;-95
2021/09/29 06:21:55;;;;;;;10.90;9.90;;;11.90;99.90;;;;;;4929009;29;21257;-95
2021/09/29 06:24:22;;;;;;;10.63;9.60;;;12.00;99.90;;;;;;4922481;29;20724;-96
2021/09/29 06:26:49;;;;;;;10.57;9.70;;;12.20;99.90;;;;;;4927619;29;20632;-95
2021/09/29 06:29:16;;;;;;;15.13;8.97;;;12.30;99.90;;;;;;4930103;29;20714;-94
2021/09/29 06:31:43;;;;;;;9.17;7.93;;;12.50;99.90;;;;;;4946326;28;20656;-95
2021/09/29 06:34:10;;;;;;;10.00;9.00;;;12.70;99.90;;;;;;4945968;29;21872;-93
2021/09/29 06:36:38;;;;;;;10.20;9.03;;;12.80;99.90;;;;;;4926362;29;20719;-93
2021/09/29 06:39:05;;;;;;;9.87;8.43;;;13.00;99.90;;;;;;4930027;29;20669;-93
2021/09/29 06:41:32;;;;;;;10.80;8.10;;;13.20;99.90;;;;;;4921350;29;20737;-94
2021/09/29 06:43:59;;;;;;;10.73;8.27;;;13.20;99.90;;;;;;4927573;29;20640;-94
2021/09/29 07:56:24;;;;;;;4.03;2.10;;;15.80;99.90;;;;;;4952662;29;21009;-94
2021/09/29 07:58:57;;;;;;;2.10;1.87;;;15.70;99.90;;;;;;4948086;29;20642;-95
2021/09/29 08:01:32;;;;;;;3.23;2.10;;;15.80;99.90;;;;;;4957443;29;20701;-96
2021/09/29 08:07:22;;;;;;;3.97;1.67;;;16.20;99.90;;;;;;4948747;29;20664;-96
2021/09/29 08:10:26;;;;;;;3.87;1.70;;;16.40;99.90;;;;;;4940946;29;20643;-96
2021/09/29 08:16:17;;;;;;;2.00;1.20;;;16.60;99.90;;;;;;4935934;29;20634;-94
2021/09/29 08:19:00;;;;;;;3.10;1.50;;;16.70;99.90;;;;;;4941760;29;20694;-96
2021/09/29 08:21:29;;;;;;;2.90;1.50;;;16.80;99.90;;;;;;4935723;29;20695;-95
2021/09/29 08:24:03;;;;;;;1.73;1.10;;;17.10;99.90;;;;;;4941168;29;20701;-96
2021/09/29 08:26:50;;;;;;;2.63;1.17;;;17.30;99.90;;;;;;4938018;29;20641;-94
2021/09/29 08:32:34;;;;;;;1.63;1.50;;;17.30;99.90;;;;;;4938582;29;20612;-96
2021/09/29 08:35:10;;;;;;;3.50;1.53;;;17.60;99.90;;;;;;4933605;29;20648;-96
2021/09/29 08:37:44;;;;;;;2.93;1.17;;;17.50;99.90;;;;;;4935374;29;20638;-96
2021/09/29 08:40:20;;;;;;;5.43;1.33;;;17.60;99.90;;;;;;4941557;29;20715;-95
2021/09/29 08:45:50;;;;;;;4.23;1.43;;;17.90;99.90;;;;;;4943786;29;20632;-96
2021/09/29 08:57:53;;;;;;;2.27;1.23;;;18.30;99.90;;;;;;4937683;29;20671;-96
2021/09/29 09:18:20;;;;;;;;;;;;;;;;;;;;;
2021/09/29 09:21:03;;;;;;;4.70;1.70;;;18.60;99.90;;;;;;4932631;29;20635;-96
2021/09/29 09:23:40;;;;;;;2.40;1.10;;;18.90;99.90;;;;;;4944501;29;20654;-95
2021/09/29 09:26:31;;;;;;;1.27;1.00;;;18.80;99.90;;;;;;4938858;29;20670;-96
2021/09/29 09:30:05;;;;;;;4.00;1.07;;;19.00;99.90;;;;;;4940305;29;20695;-96
2021/09/29 09:33:09;;;;;;;2.30;0.90;;;19.40;99.90;;;;;;4923850;29;21277;-95
2021/09/29 09:36:10;;;;;;;1.20;0.90;;;18.80;99.90;;;;;;4921161;29;20675;-96
2021/09/29 09:39:40;;;;;;;1.70;0.80;;;19.00;99.90;;;;;;4937508;29;20653;-95
2021/09/29 09:42:14;;;;;;;3.17;0.90;;;19.10;99.90;;;;;;4895818;29;20733;-96
2021/09/29 09:44:55;;;;;;;3.80;0.90;;;19.20;99.90;;;;;;4938536;29;20671;-95
2021/09/29 09:51:06;;;;;;;1.47;1.00;;;19.90;99.90;;;;;;4909415;29;20680;-95
2021/09/29 09:53:54;;;;;;;6.53;1.10;;;20.20;99.90;;;;;;4940793;29;21254;-96
2021/09/29 09:56:45;;;;;;;1.90;1.00;;;20.40;99.90;;;;;;4937439;29;20657;-95
2021/09/29 10:08:28;;;;;;;4.70;0.83;;;19.60;99.60;;;;;;4945662;29;20694;-96
2021/09/29 10:11:59;;;;;;;6.20;1.27;;;19.30;99.90;;;;;;4953866;29;20645;-95
2021/09/29 10:24:03;;;;;;;3.20;0.83;;;19.70;99.90;;;;;;4945502;28;20602;-95
2021/09/29 10:26:42;;;;;;;0.83;0.60;;;19.60;99.70;;;;;;4952186;28;20669;-95
2021/09/29 10:32:58;;;;;;;1.73;1.33;;;19.90;99.10;;;;;;4942240;28;20666;-95
2021/09/29 10:41:59;;;;;;;4.20;1.33;;;19.70;99.50;;;;;;4973453;28;20615;-94
2021/09/29 12:08:27;;;;;;;1.23;0.70;;;22.40;86.90;;;;;;4757601;30;20630;-92
2021/09/29 12:14:24;;;;;;;1.53;0.63;;;21.80;88.60;;;;;;4704911;29;20651;-91
2021/09/29 12:16:54;;;;;;;3.27;0.70;;;21.70;90.50;;;;;;4840064;29;20645;-90
2021/09/29 12:20:10;;;;;;;1.07;0.43;;;21.20;90.90;;;;;;4931225;29;20684;-91
2021/09/29 12:23:22;;;;;;;;;;;;;;;;;;;;;
2021/09/29 12:26:30;;;;;;;2.07;0.90;;;21.00;92.30;;;;;;4916607;29;20671;-92
2021/09/29 12:31:51;;;;;;;1.93;0.57;;;21.40;91.70;;;;;;4922332;29;20639;-91
2021/09/29 12:34:32;;;;;;;1.47;0.67;;;21.50;90.90;;;;;;4924061;29;20634;-90
2021/09/29 12:37:11;;;;;;;2.70;0.70;;;22.60;89.40;;;;;;4935617;29;20638;-91
2021/09/29 12:40:17;;;;;;;1.83;0.60;;;23.30;84.30;;;;;;4921028;29;20762;-91
2021/09/29 12:46:13;;;;;;;1.57;0.80;;;24.40;80.80;;;;;;4859264;29;21455;-90
2021/09/29 12:48:43;;;;;;;1.63;0.80;;;24.10;79.20;;;;;;4920545;29;20686;-90
2021/09/29 12:51:20;;;;;;;1.33;0.97;;;23.40;81.90;;;;;;4918475;29;20715;-93
2021/09/29 12:53:51;;;;;;;1.33;0.80;;;23.10;84.50;;;;;;4924405;29;20646;-91
2021/09/29 12:56:18;;;;;;;2.23;1.00;;;23.70;81.30;;;;;;4919281;29;20710;-90
2021/09/29 12:58:47;;;;;;;3.30;0.83;;;23.20;81.90;;;;;;4925125;29;20663;-91
2021/09/29 13:01:16;;;;;;;2.60;0.80;;;22.30;84.20;;;;;;4924305;29;20696;-90
2021/09/29 13:03:51;;;;;;;1.33;0.60;;;22.10;87.00;;;;;;4919717;29;20596;-91
2021/09/29 13:06:20;;;;;;;1.50;0.60;;;21.60;88.20;;;;;;4919024;29;20580;-91
2021/09/29 13:08:47;;;;;;;1.93;0.70;;;21.30;89.40;;;;;;4921593;29;20688;-92
2021/09/29 13:11:14;;;;;;;2.63;0.80;;;20.90;90.50;;;;;;4920091;29;20637;-91
2021/09/29 13:13:41;;;;;;;2.50;0.90;;;20.70;91.60;;;;;;4927564;29;20769;-89
2021/09/29 13:16:10;;;;;;;2.33;0.70;;;20.60;92.30;;;;;;4920797;29;20643;-90
2021/09/29 13:18:44;;;;;;;1.67;0.87;;;20.70;92.60;;;;;;4921081;29;20652;-91
2021/09/29 13:21:14;;;;;;;3.00;0.60;;;20.90;92.60;;;;;;4918344;29;20632;-88
2021/09/29 13:23:47;;;;;;;2.50;0.90;;;21.40;92.00;;;;;;4928531;29;20668;-91
2021/09/29 13:38:01;;;;;;;4.93;1.13;;;20.90;93.00;;;;;;4924413;28;21168;-95
2021/09/29 13:40:34;;;;;;;1.13;0.70;;;20.50;95.50;;;;;;4929341;29;20647;-93
2021/09/29 13:43:02;;;;;;;2.53;0.50;;;19.90;97.50;;;;;;4927018;29;20663;-93
2021/09/29 13:45:30;;;;;;;3.00;1.33;;;19.70;99.90;;;;;;4939104;29;21042;-94
2021/09/29 13:48:02;;;;;;;3.20;1.93;;;19.30;99.90;;;;;;4933659;29;20650;-93
2021/09/29 13:50:47;;;;;;;1.70;0.93;;;18.70;99.90;;;;;;4925711;29;20640;-95
2021/09/29 13:53:17;;;;;;;3.23;1.60;;;18.30;99.90;;;;;;4931771;29;20639;-96
2021/09/29 13:55:48;;;;;;;4.53;1.50;;;18.00;99.90;;;;;;4927671;29;20639;-94
2021/09/29 13:58:23;;;;;;;2.03;1.10;;;17.50;99.90;;;;;;4933253;29;20631;-96
2021/09/29 14:01:11;;;;;;;1.83;0.93;;;17.10;99.90;;;;;;4931849;29;21024;-96
2021/09/29 14:03:52;;;;;;;1.10;1.00;;;16.80;99.90;;;;;;4922382;29;20699;-94
2021/09/29 14:15:26;;;;;;;1.57;0.87;;;17.00;99.90;;;;;;4923766;29;20755;-96
2021/09/29 14:30:02;;;;;;;1.50;0.50;;;16.60;99.90;;;;;;4925702;29;21507;-95
2021/09/29 14:32:33;;;;;;;1.00;0.60;;;16.40;99.90;;;;;;4916668;29;20631;-95
2021/09/29 14:35:05;;;;;;;2.50;0.90;;;16.30;99.90;;;;;;4933130;29;20627;-94
2021/09/29 14:37:48;;;;;;;2.27;0.70;;;16.30;99.90;;;;;;4932955;29;20750;-95
2021/09/29 14:40:43;;;;;;;3.57;0.70;;;16.30;99.90;;;;;;4931724;29;20758;-96
2021/09/29 14:43:16;;;;;;;0.93;0.53;;;16.10;99.90;;;;;;4931244;29;20623;-93
2021/09/29 14:45:46;;;;;;;1.10;0.33;;;15.20;99.90;;;;;;4931833;29;20644;-96
2021/09/29 14:48:13;;;;;;;1.33;0.70;;;14.70;99.90;;;;;;4928185;29;20735;-95
2021/09/29 14:50:43;;;;;;;0.70;0.40;;;14.40;99.90;;;;;;4929333;29;20668;-94
2021/09/29 14:53:10;;;;;;;0.77;0.30;;;14.10;99.90;;;;;;4929895;29;20734;-95
2021/09/29 14:55:38;;;;;;;0.87;0.50;;;14.00;99.90;;;;;;4920739;29;20675;-94
2021/09/29 14:58:07;;;;;;;0.80;0.50;;;13.90;99.90;;;;;;4930775;29;20635;-94
2021/09/29 15:00:46;;;;;;;0.70;0.40;;;13.90;99.90;;;;;;4936206;29;20654;-95
2021/09/29 15:03:17;;;;;;;1.40;0.30;;;13.90;99.90;;;;;;4924096;29;20628;-96
2021/09/29 15:05:46;;;;;;;2.43;0.50;;;13.90;99.90;;;;;;4926907;29;20730;-95
2021/09/29 15:08:26;;;;;;;0.70;0.40;;;13.90;99.90;;;;;;4926971;29;20743;-94
2021/09/29 15:11:00;;;;;;;0.70;0.70;;;13.90;99.90;;;;;;4938296;29;20651;-96
2021/09/29 15:13:28;;;;;;;1.57;0.57;;;14.00;99.90;;;;;;4932454;29;20627;-94
2021/09/29 15:16:00;;;;;;;2.40;0.50;;;13.90;99.90;;;;;;4935844;29;20664;-93
2021/09/29 15:18:32;;;;;;;0.40;0.33;;;13.90;99.90;;;;;;4935554;29;20691;-93
2021/09/29 15:21:13;;;;;;;2.50;0.67;;;13.90;99.90;;;;;;4927514;29;20637;-93
2021/09/29 15:26:56;;;;;;;0.80;0.40;;;13.90;99.90;;;;;;4914798;29;20635;-92
2021/09/29 15:46:12;;;;;;;1.17;0.40;;;13.90;99.90;;;;;;4868607;29;20614;-94
2021/09/29 15:49:33;;;;;;;1.20;0.90;;;14.00;99.90;;;;;;4925502;29;20740;-94
2021/09/29 15:52:07;;;;;;;1.17;0.77;;;14.00;99.90;;;;;;4920998;29;20703;-93
2021/09/29 15:54:51;;;;;;;1.03;0.43;;;14.10;99.90;;;;;;4923896;29;20758;-93
2021/09/29 16:02:49;;;;;;;1.90;0.40;;;14.10;99.90;;;;;;4915182;29;20696;-92
2021/09/29 16:05:25;;;;;;;0.70;0.60;;;14.60;99.90;;;;;;4926382;29;20627;-93
2021/09/29 16:08:05;;;;;;;1.67;0.53;;;16.10;99.90;;;;;;4922201;29;20650;-93
2021/09/29 16:13:33;;;;;;;1.47;0.63;;;19.10;99.90;;;;;;4946854;29;20643;-93
2021/09/29 16:19:10;;;;;;;0.90;0.50;;;17.10;99.90;;;;;;4910493;29;20600;-93
2021/09/29 16:30:12;;;;;;;2.07;0.97;;;15.20;99.90;;;;;;4948502;28;21086;-94
2021/09/29 16:32:54;;;;;;;1.60;1.00;;;15.00;99.90;;;;;;4926752;29;20699;-94
2021/09/29 16:38:02;;;;;;;4.30;1.20;;;14.70;99.90;;;;;;4921346;29;20627;-94
2021/09/29 16:40:33;;;;;;;1.20;0.73;;;14.70;99.90;;;;;;4931356;29;20669;-93
2021/09/29 16:43:01;;;;;;;1.03;0.50;;;14.60;99.90;;;;;;4927680;29;20751;-93
2021/09/29 16:45:29;;;;;;;1.27;0.73;;;14.50;99.90;;;;;;4923168;29;21194;-94
2021/09/29 16:47:56;;;;;;;2.00;0.70;;;14.40;99.90;;;;;;4927017;29;20651;-92
2021/09/29 16:50:29;;;;;;;1.00;0.70;;;14.30;99.90;;;;;;4924257;29;20663;-93
2021/09/29 16:52:58;;;;;;;1.20;0.80;;;14.30;99.90;;;;;;4929021;29;20671;-93
2021/09/29 16:55:30;;;;;;;1.83;0.83;;;14.30;99.90;;;;;;4919443;29;20662;-93
2021/09/29 16:58:09;;;;;;;2.90;1.33;;;14.30;99.90;;;;;;4922241;29;20644;-93
2021/09/29 17:00:46;;;;;;;1.83;1.20;;;14.20;99.90;;;;;;4925874;29;20639;-92
2021/09/29 17:03:13;;;;;;;1.73;1.30;;;14.30;99.90;;;;;;4926610;29;20757;-93
2021/09/29 17:05:40;;;;;;;2.77;1.90;;;14.30;99.90;;;;;;4928336;29;20742;-92
2021/09/29 17:08:07;;;;;;;3.87;1.80;;;14.30;99.90;;;;;;4929392;29;20643;-93
2021/09/29 17:10:37;;;;;;;4.90;2.40;;;14.20;99.90;;;;;;4923268;29;20667;-94
2021/09/29 17:13:06;;;;;;;3.30;1.73;;;14.20;99.90;;;;;;4927189;29;20682;-93
2021/09/29 17:15:35;;;;;;;2.50;1.60;;;14.20;99.90;;;;;;4926480;29;20621;-94
2021/09/29 17:18:02;;;;;;;2.87;1.90;;;14.10;99.90;;;;;;4926343;29;21163;-93
2021/09/29 17:20:29;;;;;;;4.20;1.60;;;14.10;99.90;;;;;;4924398;29;20726;-93
2021/09/29 17:22:59;;;;;;;3.00;1.67;;;14.10;99.90;;;;;;4923806;29;21081;-93
2021/09/29 17:25:31;;;;;;;2.60;1.20;;;14.10;99.90;;;;;;4920892;29;20990;-93
2021/09/29 17:27:58;;;;;;;2.57;1.10;;;14.00;99.90;;;;;;4925405;29;20647;-93
2021/09/29 17:30:30;;;;;;;2.13;0.93;;;14.00;99.90;;;;;;4929495;29;20758;-94
2021/09/29 17:35:47;;;;;;;0.93;0.70;;;13.80;99.90;;;;;;4923020;29;21188;-93
2021/09/29 17:52:22;;;;;;;1.23;0.80;;;13.80;99.90;;;;;;4922160;29;20744;-93
2021/09/29 17:54:50;;;;;;;2.10;0.70;;;13.70;99.90;;;;;;4918500;29;21753;-94
2021/09/29 17:57:17;;;;;;;3.20;1.00;;;13.70;99.90;;;;;;4926616;29;20632;-94
2021/09/29 17:59:48;;;;;;;2.10;0.80;;;13.60;99.90;;;;;;4931098;29;20640;-94
2021/09/29 18:02:21;;;;;;;1.30;0.70;;;13.60;99.90;;;;;;4936661;29;20631;-94
2021/09/29 18:04:51;;;;;;;2.17;1.00;;;13.60;99.90;;;;;;4937832;29;21246;-96
2021/09/29 18:07:38;;;;;;;1.77;0.70;;;13.50;99.90;;;;;;4934214;29;20632;-93
2021/09/29 18:10:06;;;;;;;1.23;0.90;;;13.50;99.90;;;;;;4932357;29;20677;-93
2021/09/29 18:15:21;;;;;;;3.10;1.07;;;13.50;99.90;;;;;;4946500;28;20670;-93
2021/09/29 18:18:01;;;;;;;1.93;0.70;;;13.40;99.90;;;;;;4941361;29;20667;-94
2021/09/29 18:20:29;;;;;;;3.83;1.13;;;13.40;99.90;;;;;;4946272;28;20649;-95
2021/09/29 18:23:06;;;;;;;2.27;0.50;;;13.40;99.90;;;;;;4951840;28;20665;-93
2021/09/29 18:25:40;;;;;;;1.53;0.70;;;13.40;99.90;;;;;;4960446;28;20677;-94
2021/09/29 18:28:10;;;;;;;2.40;0.90;;;13.40;99.90;;;;;;4960681;28;20696;-94
2021/09/29 18:30:42;;;;;;;2.90;1.10;;;13.30;99.90;;;;;;4953998;29;20681;-92
2021/09/29 18:33:17;;;;;;;1.97;0.70;;;13.30;99.90;;;;;;4959387;28;20670;-96
2021/09/29 18:35:46;;;;;;;1.13;0.80;;;13.30;99.90;;;;;;4953856;29;20686;-94
2021/09/29 18:38:14;;;;;;;0.90;0.80;;;13.30;99.90;;;;;;4959144;29;20666;-95
2021/09/29 18:40:48;;;;;;;1.60;0.70;;;13.30;99.90;;;;;;4962077;28;20634;-96
2021/09/29 18:49:14;;;;;;;1.57;0.63;;;13.20;99.90;;;;;;4960656;29;20685;-95
2021/09/29 18:51:52;;;;;;;1.80;1.00;;;13.20;99.90;;;;;;4964215;29;20631;-94
2021/09/29 18:54:28;;;;;;;3.67;1.93;;;13.20;99.90;;;;;;4959568;29;20689;-95
2021/09/29 19:08:30;;;;;;;1.43;0.87;;;12.80;99.90;;;;;;4951054;29;20722;-95
2021/09/29 19:10:57;;;;;;;1.73;0.80;;;12.60;99.90;;;;;;4960152;28;20655;-94
2021/09/29 19:13:24;;;;;;;1.87;1.03;;;12.50;99.90;;;;;;4956207;28;20678;-95
2021/09/29 19:15:53;;;;;;;1.60;1.10;;;12.50;99.90;;;;;;4951750;28;20627;-95
2021/09/29 19:18:20;;;;;;;1.60;1.03;;;12.40;99.90;;;;;;4953189;29;20626;-95
2021/09/29 19:21:08;;;;;;;1.97;0.90;;;12.40;99.90;;;;;;4956404;28;20677;-94
2021/09/29 19:23:39;;;;;;;2.20;0.90;;;12.30;99.90;;;;;;4960051;28;20671;-96
2021/09/29 19:26:09;;;;;;;3.17;1.23;;;12.30;99.90;;;;;;4963504;29;20718;-93
2021/09/29 19:40:37;;;;;;;2.10;0.93;;;12.20;99.90;;;;;;4952530;29;20678;-92
2021/09/29 20:10:37;;;;;;;2.70;0.97;;;11.90;99.90;;;;;;4894876;29;20670;-96
2021/09/29 21:02:47;;;;;;;1.43;0.70;;;11.80;99.90;;;;;;4964057;28;20625;-95
2021/09/29 21:05:16;;;;;;;1.37;1.03;;;11.60;99.90;;;;;;4964045;28;20654;-94
2021/09/29 21:28:34;;;;;;;1.70;1.33;;;11.40;99.90;;;;;;4941245;29;20663;-96
2021/09/29 21:31:05;;;;;;;2.10;0.87;;;11.30;99.90;;;;;;4943733;28;20666;-96
2021/09/29 21:33:35;;;;;;;2.70;1.00;;;11.10;99.90;;;;;;4941925;28;20648;-94
2021/09/29 21:36:04;;;;;;;3.60;1.30;;;11.00;99.90;;;;;;4949789;29;20634;-93
2021/09/29 21:38:36;;;;;;;1.40;1.17;;;11.20;99.90;;;;;;4922567;29;21186;-93
2021/09/29 21:41:16;;;;;;;3.10;1.47;;;11.10;99.90;;;;;;4939137;29;20647;-94
2021/09/29 21:47:00;;;;;;;2.63;1.40;;;10.60;99.90;;;;;;4920868;29;20703;-94
2021/09/29 22:01:08;;;;;;;1.90;1.40;;;10.20;99.90;;;;;;4946460;29;20701;-96
2021/09/29 22:24:00;;;;;;;1.03;0.93;;;10.00;99.90;;;;;;4903005;29;20640;-95
2021/09/29 22:43:34;;;;;;;2.87;1.00;;;10.30;99.90;;;;;;4950526;28;20607;-93
2021/09/29 23:04:08;;;;;;;3.87;1.07;;;10.50;99.90;;;;;;4945732;28;20599;-95
2021/09/29 23:06:43;;;;;;;2.17;1.20;;;10.50;99.90;;;;;;4947040;29;20667;-94
2021/09/29 23:09:17;;;;;;;2.53;1.10;;;10.40;99.90;;;;;;4945969;28;20667;-93
2021/09/29 23:11:57;;;;;;;3.83;1.60;;;10.30;99.90;;;;;;4953349;28;20686;-94
2021/09/29 23:22:49;;;;;;;4.70;1.63;;;10.00;99.90;;;;;;4946778;29;20634;-95
2021/09/29 23:33:31;;;;;;;3.03;1.83;;;9.60;99.90;;;;;;4947268;29;20575;-94
2021/09/29 23:36:11;;;;;;;4.10;1.43;;;9.60;99.90;;;;;;4949874;28;20659;-95
2021/09/29 23:38:38;;;;;;;3.50;1.50;;;9.60;99.90;;;;;;4968699;28;20615;-94
2021/09/29 23:41:07;;;;;;;2.70;1.50;;;9.50;99.90;;;;;;4961977;28;20739;-93
2021/09/29 23:43:42;;;;;;;4.77;1.53;;;9.40;99.90;;;;;;4961556;28;20667;-93
2021/09/29 23:46:10;;;;;;;3.43;1.50;;;9.30;99.90;;;;;;4946651;28;20721;-94
2021/09/29 23:48:48;;;;;;;3.70;1.50;;;9.30;99.90;;;;;;4945318;28;20644;-94
2021/09/29 23:51:17;;;;;;;2.53;1.30;;;9.20;99.90;;;;;;4948162;29;20697;-94
2021/09/29 23:53:44;;;;;;;2.90;1.47;;;9.10;99.90;;;;;;4949569;29;20639;-93
2021/09/29 23:56:11;;;;;;;2.13;1.10;;;9.10;99.90;;;;;;4939796;29;20730;-94
2021/09/29 23:58:38;;;;;;;2.70;1.47;;;9.10;99.90;;;;;;4944583;29;20646;-94
